TimeEDT,TemperatureF,Dew PointF,Humidity,Sea Level PressureIn,VisibilityMPH,Wind Direction,Wind SpeedMPH,Gust SpeedMPH,PrecipitationIn,Events,Conditions,WindDirDegrees,DateUTC
12:15 AM,42.8,42.8,100,30.21,2.5,East,4.6,-,N/A,,Drizzle,90,2012-10-09 04:15:00
12:35 AM,42.8,42.8,100,30.19,2.5,East,3.5,-,N/A,Rain,Light Rain,100,2012-10-09 04:35:00
12:55 AM,42.8,42.8,100,30.19,3.0,ESE,3.5,-,N/A,,Overcast,110,2012-10-09 04:55:00
1:15 AM,42.8,42.8,100,30.19,4.0,Calm,Calm,-,0.01,,Overcast,0,2012-10-09 05:15:00
1:35 AM,42.8,42.8,100,30.18,5.0,Calm,Calm,-,0.01,,Overcast,0,2012-10-09 05:35:00
1:55 AM,42.8,42.8,100,30.19,7.0,Calm,Calm,-,0.01,,Overcast,0,2012-10-09 05:55:00
2:15 AM,42.8,42.8,100,30.19,10.0,Calm,Calm,-,N/A,,Overcast,0,2012-10-09 06:15:00
2:55 AM,42.8,42.8,100,30.18,7.0,Calm,Calm,-,N/A,,Overcast,0,2012-10-09 06:55:00
3:15 AM,42.8,42.8,100,30.18,7.0,Calm,Calm,-,N/A,,Overcast,0,2012-10-09 07:15:00
3:55 AM,42.8,42.8,100,30.16,7.0,Calm,Calm,-,N/A,,Overcast,0,2012-10-09 07:55:00
4:15 AM,42.8,42.8,100,30.16,7.0,Calm,Calm,-,N/A,,Overcast,0,2012-10-09 08:15:00
4:35 AM,42.8,42.8,100,30.16,7.0,Calm,Calm,-,N/A,,Overcast,0,2012-10-09 08:35:00
4:55 AM,42.8,42.8,100,30.16,7.0,Calm,Calm,-,N/A,,Overcast,0,2012-10-09 08:55:00
5:15 AM,42.8,42.8,100,30.17,10.0,Calm,Calm,-,N/A,,Overcast,0,2012-10-09 09:15:00
5:35 AM,42.8,42.8,100,30.17,5.0,Calm,Calm,-,N/A,,Overcast,0,2012-10-09 09:35:00
5:55 AM,42.8,42.8,100,30.17,7.0,Calm,Calm,-,N/A,,Overcast,0,2012-10-09 09:55:00
6:15 AM,42.8,42.8,100,30.18,7.0,Calm,Calm,-,N/A,,Overcast,0,2012-10-09 10:15:00
6:35 AM,42.8,42.8,100,30.18,7.0,Calm,Calm,-,N/A,,Overcast,0,2012-10-09 10:35:00
6:55 AM,42.8,42.8,100,30.18,7.0,Calm,Calm,-,N/A,,Overcast,0,2012-10-09 10:55:00
7:15 AM,42.8,42.8,100,30.19,7.0,Calm,Calm,-,N/A,,Overcast,0,2012-10-09 11:15:00
7:55 AM,44.6,44.6,100,30.19,10.0,Calm,Calm,-,N/A,,Overcast,0,2012-10-09 11:55:00
8:15 AM,44.6,44.6,100,30.20,10.0,Calm,Calm,-,N/A,,Overcast,0,2012-10-09 12:15:00
8:35 AM,44.6,44.6,100,30.20,10.0,Calm,Calm,-,N/A,,Overcast,0,2012-10-09 12:35:00
8:55 AM,44.6,44.6,100,30.20,10.0,Calm,Calm,-,N/A,,Overcast,0,2012-10-09 12:55:00
9:15 AM,44.6,44.6,100,30.20,10.0,Calm,Calm,-,N/A,,Overcast,0,2012-10-09 13:15:00
9:35 AM,46.4,46.4,100,30.20,10.0,Calm,Calm,-,N/A,,Overcast,0,2012-10-09 13:35:00
9:55 AM,46.4,46.4,100,30.20,10.0,Calm,Calm,-,N/A,,Overcast,0,2012-10-09 13:55:00
10:15 AM,46.4,46.4,100,30.20,10.0,Calm,Calm,-,N/A,,Overcast,0,2012-10-09 14:15:00
10:35 AM,46.4,46.4,100,30.21,10.0,Calm,Calm,-,N/A,,Overcast,0,2012-10-09 14:35:00
10:55 AM,48.2,46.4,93,30.20,10.0,Calm,Calm,-,N/A,,Overcast,0,2012-10-09 14:55:00
11:15 AM,48.2,46.4,93,30.20,10.0,Calm,Calm,-,N/A,,Overcast,0,2012-10-09 15:15:00
11:35 AM,50.0,46.4,87,30.19,10.0,Calm,Calm,-,N/A,,Overcast,0,2012-10-09 15:35:00
11:55 AM,51.8,48.2,88,30.19,10.0,Calm,Calm,-,N/A,,Overcast,0,2012-10-09 15:55:00
12:15 PM,51.8,48.2,88,30.19,10.0,Calm,Calm,-,N/A,,Overcast,0,2012-10-09 16:15:00
12:35 PM,53.6,48.2,82,30.18,10.0,Calm,Calm,-,N/A,,Overcast,0,2012-10-09 16:35:00
12:55 PM,53.6,48.2,82,30.17,10.0,Calm,Calm,-,N/A,,Overcast,0,2012-10-09 16:55:00
1:15 PM,55.4,48.2,77,30.15,10.0,Calm,Calm,-,N/A,,Scattered Clouds,0,2012-10-09 17:15:00
1:35 PM,55.4,48.2,77,30.15,10.0,Calm,Calm,-,N/A,,Mostly Cloudy,0,2012-10-09 17:35:00
1:55 PM,55.4,50.0,82,30.13,10.0,Calm,Calm,-,N/A,,Overcast,0,2012-10-09 17:55:00
2:15 PM,55.4,48.2,77,30.13,10.0,Calm,Calm,-,N/A,,Overcast,0,2012-10-09 18:15:00
2:35 PM,55.4,48.2,77,30.13,10.0,Calm,Calm,-,N/A,,Overcast,0,2012-10-09 18:35:00
2:55 PM,55.4,48.2,77,30.12,10.0,Calm,Calm,-,N/A,,Overcast,0,2012-10-09 18:55:00
3:15 PM,57.2,50.0,77,30.12,10.0,Calm,Calm,-,N/A,,Overcast,0,2012-10-09 19:15:00
3:35 PM,55.4,48.2,77,30.13,10.0,SSW,3.5,-,N/A,,Overcast,200,2012-10-09 19:35:00
3:55 PM,55.4,48.2,77,30.12,10.0,SSW,3.5,-,N/A,,Overcast,200,2012-10-09 19:55:00
4:15 PM,55.4,48.2,77,30.12,10.0,Calm,Calm,-,N/A,,Overcast,0,2012-10-09 20:15:00
4:35 PM,55.4,48.2,77,30.12,10.0,Calm,Calm,-,N/A,,Overcast,0,2012-10-09 20:35:00
4:55 PM,55.4,48.2,77,30.12,10.0,Calm,Calm,-,N/A,,Overcast,0,2012-10-09 20:55:00
5:15 PM,55.4,48.2,77,30.12,10.0,Calm,Calm,-,N/A,,Overcast,0,2012-10-09 21:15:00
5:35 PM,55.4,48.2,77,30.12,10.0,Calm,Calm,-,N/A,,Overcast,0,2012-10-09 21:35:00
5:55 PM,55.4,48.2,77,30.11,10.0,Calm,Calm,-,N/A,,Overcast,0,2012-10-09 21:55:00
6:15 PM,55.4,50.0,82,30.12,10.0,ESE,3.5,-,N/A,,Overcast,110,2012-10-09 22:15:00
6:35 PM,55.4,50.0,82,30.12,10.0,ESE,3.5,-,N/A,,Overcast,110,2012-10-09 22:35:00
6:55 PM,53.6,50.0,88,30.12,10.0,SE,4.6,-,N/A,,Overcast,130,2012-10-09 22:55:00
7:15 PM,53.6,51.8,94,30.11,10.0,ESE,4.6,-,N/A,,Overcast,110,2012-10-09 23:15:00
7:35 PM,53.6,50.0,88,30.11,10.0,ESE,4.6,-,N/A,,Overcast,120,2012-10-09 23:35:00
7:55 PM,53.6,50.0,88,30.12,10.0,ESE,3.5,-,N/A,,Overcast,110,2012-10-09 23:55:00
8:15 PM,53.6,50.0,88,30.12,10.0,SE,4.6,-,N/A,,Overcast,130,2012-10-10 00:15:00
8:35 PM,51.8,51.8,100,30.12,10.0,ESE,4.6,-,N/A,,Overcast,110,2012-10-10 00:35:00
8:55 PM,51.8,50.0,94,30.12,10.0,ESE,5.8,-,N/A,,Overcast,120,2012-10-10 00:55:00
9:15 PM,51.8,50.0,94,30.12,10.0,SE,4.6,-,N/A,,Overcast,130,2012-10-10 01:15:00
9:35 PM,51.8,50.0,94,30.11,10.0,ESE,4.6,-,N/A,,Mostly Cloudy,110,2012-10-10 01:35:00
9:55 PM,50.0,50.0,100,30.11,10.0,East,4.6,-,N/A,,Mostly Cloudy,100,2012-10-10 01:55:00
10:15 PM,50.0,50.0,100,30.11,10.0,Calm,Calm,-,N/A,,Mostly Cloudy,0,2012-10-10 02:15:00
10:35 PM,50.0,50.0,100,30.11,10.0,Calm,Calm,-,N/A,,Overcast,0,2012-10-10 02:35:00
10:55 PM,50.0,50.0,100,30.11,10.0,Calm,Calm,-,N/A,,Overcast,0,2012-10-10 02:55:00
11:15 PM,50.0,50.0,100,30.11,10.0,Calm,Calm,-,N/A,,Overcast,0,2012-10-10 03:15:00
11:35 PM,51.8,51.8,100,30.11,10.0,Calm,Calm,-,N/A,,Overcast,0,2012-10-10 03:35:00
11:55 PM,50.0,50.0,100,30.10,10.0,Calm,Calm,-,N/A,,Overcast,0,2012-10-10 03:55:00